This is the latest recevied weather packets stored in our database for station/object AF9W-5. If no packets are shown the sender has not sent any weather packets the latest 10 day(s).
| Time | Temp. | Humidity | Pressure | Rain* | Wind** | Luminosity | Snow |
|---|---|---|---|---|---|---|---|
| 1777603719 | 21.11° C | 40% | 1008.6 hPa | 0 mm | - | 0 W/m² | - |
| 1777603415 | 21.11° C | 39% | 1008.2 hPa | 0 mm | - | 0 W/m² | - |
| 1777603110 | 21.67° C | 39% | 1008.5 hPa | 0 mm | - | 0 W/m² | - |
| 1777602805 | 21.67° C | 37% | 1008.1 hPa | 0 mm | - | 0 W/m² | - |
| 1777602501 | 21.67° C | 35% | 1008.2 hPa | 0 mm | - | 0 W/m² | - |
| 1777602197 | 21.67° C | 34% | 1008 hPa | 0 mm | - | 0 W/m² | - |
| 1777601893 | 22.22° C | 33% | 1007.9 hPa | 0 mm | - | 0 W/m² | - |
| 1777601588 | 22.78° C | 29% | 1007.9 hPa | 0 mm | - | 0 W/m² | - |
| 1777600981 | 22.78° C | 28% | 1007.6 hPa | 0 mm | - | 1 W/m² | - |
| 1777587021 | 28.33° C | 17% | 1006.7 hPa | 0 mm | - | 620 W/m² | - |
| 1777586717 | 29.44° C | 16% | 1006.9 hPa | 0 mm | - | 602 W/m² | - |
| 1777586114 | 29.44° C | 17% | 1007.1 hPa | 0 mm | - | 655 W/m² | - |
| 1777584297 | 27.22° C | 17% | 1007.6 hPa | 0 mm | - | 274 W/m² | - |
| 1777583992 | 28.33° C | 17% | 1007.8 hPa | 0 mm | - | 236 W/m² | - |
| 1777583692 | 28.89° C | 17% | 1007.6 hPa | 0 mm | - | 330 W/m² | - |
| 1777583091 | 28.33° C | 18% | 1008.1 hPa | 0 mm | - | 399 W/m² | - |
| 1777581572 | 28.89° C | 17% | 1008.4 hPa | 0 mm | - | 991 W/m² | - |
| 1777581267 | 30° C | 17% | 1008.6 hPa | 0 mm | - | 507 W/m² | - |
| 1777580662 | 28.89° C | 17% | 1008.6 hPa | 0 mm | - | 1096 W/m² | - |
| 1777580358 | 27.78° C | 18% | 1008.4 hPa | 0 mm | - | 1117 W/m² | - |
| 1777580055 | 29.44° C | 17% | 1008.8 hPa | 0 mm | - | 544 W/m² | - |
| 1777579751 | 28.33° C | 19% | 1008.5 hPa | 0 mm | - | 1072 W/m² | - |
| 1777579449 | 28.89° C | 17% | 1008.8 hPa | 0 mm | - | 408 W/m² | - |
| 1777578845 | 28.33° C | 16% | 1008.9 hPa | 0 mm | - | 734 W/m² | - |
| 1777578541 | 28.89° C | 15% | 1009 hPa | 0 mm | - | 946 W/m² | - |
* Rain latest hour (hover to see other rain measurements)
** Current wind speed in m/s (hover to see current wind gust speed)